WetterOnline ( https://www.wetteronline.de )

Wetter aktuell Artern

Aktuelles Wetter: Artern (166m)

6-stündlich | Neueste Meldungen
Ortszeit Temperatur Wetter
Di, 20.10. 20:00 10.8° C leichter Regen
Di, 20.10. 14:00 14.2° C bedeckt
Di, 20.10. 8:00 5.6° C bedeckt
Di, 20.10. 2:00 5.5° C bedeckt
Mo, 19.10. 20:00 10.5° C bedeckt
Mo, 19.10. 14:00 11.4° C bedeckt
Mo, 19.10. 8:00 7.9° C bedeckt
Mo, 19.10. 2:00 8.4° C bedeckt
Ortszeit Temperatur Wetter
Mi, 21.10. 1:30 10.4° C bedeckt
Mi, 21.10. 1:20 10.4° C bedeckt
Mi, 21.10. 1:10 10.2° C bedeckt
Mi, 21.10. 1:00 10.1° C bedeckt
Mi, 21.10. 0:50 10.1° C bedeckt
Mi, 21.10. 0:40 10.4° C bedeckt
Mi, 21.10. 0:30 9.8° C leichter Regen
Mi, 21.10. 0:00 10.1° C bedeckt
Ortszeit Relative Feuchte Sichtweite
Di, 20.10. 20:00 87% 6 km
Di, 20.10. 14:00 58% 60 km
Di, 20.10. 8:00 73% 45 km
Di, 20.10. 2:00 77% 50 km
Mo, 19.10. 20:00 70% 50 km
Mo, 19.10. 14:00 73% 24 km
Mo, 19.10. 8:00 91% 10 km
Mo, 19.10. 2:00 88% 17 km
Ortszeit Relative Feuchte Sichtweite
Mi, 21.10. 1:30 90% 40 km
Mi, 21.10. 1:20 90% -
Mi, 21.10. 1:10 91% -
Mi, 21.10. 1:00 92% 29 km
Mi, 21.10. 0:50 92% -
Mi, 21.10. 0:40 91% -
Mi, 21.10. 0:30 93% 23 km
Mi, 21.10. 0:00 92% 30 km
Ortszeit Niederschlagsmenge Niederschlagsart
Di, 20.10. 20:00 0.6 l/m2 in 12 Std. Regen
Di, 20.10. 14:00 0.0 l/m2 in 6 Std. -
Di, 20.10. 8:00 0.0 l/m2 in 12 Std. -
Di, 20.10. 2:00 0.0 l/m2 in 6 Std. -
Mo, 19.10. 20:00 0.1 l/m2 in 12 Std. -
Mo, 19.10. 14:00 0.1 l/m2 in 6 Std. Regen
Mo, 19.10. 8:00 0.4 l/m2 in 12 Std. Regen
Mo, 19.10. 2:00 0.2 l/m2 in 6 Std. Regen
Ortszeit Niederschlagsmenge Niederschlagsart
Mi, 21.10. 1:30 0.0 l/m2 in 1 Std. -
Mi, 21.10. 1:20 keine Meldung -
Mi, 21.10. 1:10 keine Meldung -
Mi, 21.10. 1:00 0.1 l/m2 in 1 Std. Regen
Mi, 21.10. 0:50 keine Meldung -
Mi, 21.10. 0:40 keine Meldung -
Mi, 21.10. 0:30 0.1 l/m2 in 1 Std. -
Mi, 21.10. 0:00 0.0 l/m2 in 1 Std. -
Ortszeit Stärke Spitze Richtung
km/h Bft. km/h Grad Sektor
Di, 20.10. 20:00 7 2 25 230° SW
Di, 20.10. 14:00 14 3 22 190° S
Di, 20.10. 8:00 14 3 22 130° SO
Di, 20.10. 2:00 11 2 25 130° SO
Mo, 19.10. 20:00 11 2 22 140° SO
Mo, 19.10. 14:00 7 2 22 260° W
Mo, 19.10. 8:00 7 2 18 220° SW
Mo, 19.10. 2:00 7 2 25 230° SW
Ortszeit Stärke Spitze Richtung
km/h Bft. km/h Grad Sektor
Mi, 21.10. 1:30 4 1 7 160° S
Mi, 21.10. 1:20 4 1 - 160° S
Mi, 21.10. 1:10 4 1 - 120° SO
Mi, 21.10. 1:00 4 1 11 60° NO
Mi, 21.10. 0:50 4 1 - 60° NO
Mi, 21.10. 0:40 4 1 - 350° N
Mi, 21.10. 0:30 7 2 11 30° NO
Mi, 21.10. 0:00 4 1 14 220° SW
Ortszeit Untergrenze Bedeckung Gattung
total tief tief mittel hoch
Di, 20.10. 20:00 1800 m 8/8 8/8 - - -
Di, 20.10. 14:00 6000 m 8/8 8/8 - - -
Di, 20.10. 8:00 5100 m 8/8 8/8 - - -
Di, 20.10. 2:00 6900 m 8/8 8/8 - - -
Mo, 19.10. 20:00 1500 m 8/8 8/8 - - -
Mo, 19.10. 14:00 1800 m 8/8 8/8 - - -
Mo, 19.10. 8:00 450 m 8/8 8/8 - - -
Mo, 19.10. 2:00 540 m 8/8 8/8 - - -
Ortszeit Bedeckungsgrad in Achtel und Wolkenuntergrenze
Mi, 21.10. 1:30 8(2100m)
Mi, 21.10. 1:20 8(2100m)
Mi, 21.10. 1:10 8(2100m)
Mi, 21.10. 1:00 2(1800m) 8(2400m)
Mi, 21.10. 0:50 2(1800m) 8(2400m)
Mi, 21.10. 0:40 3(1800m) 7(2400m) 8(2700m)
Mi, 21.10. 0:30 1(1800m) 7(2700m) 7(3600m)
Mi, 21.10. 0:00 7(3000m) 8(3900m) 8(3900m)
Ortszeit Luftdruck NN (hPa) Tendenz (hPa in 3 Std.)
Di, 20.10. 20:00 1013 + 0,3
Di, 20.10. 14:00 1014 - 1,3
Di, 20.10. 8:00 1017 - 2,0
Di, 20.10. 2:00 1020 - 1,7
Mo, 19.10. 20:00 1022 - 0,3
Mo, 19.10. 14:00 1023 - 0,5
Mo, 19.10. 8:00 1023 + 0,5
Mo, 19.10. 2:00 1022 + 0,6
Ortszeit Luftdruck NN (hPa) Tendenz (hPa in 3 Std.)
Mi, 21.10. 1:30 1012 - 1,2
Mi, 21.10. 1:20 1012 keine Meldung
Mi, 21.10. 1:10 1012 keine Meldung
Mi, 21.10. 1:00 1012 - 1,1
Mi, 21.10. 0:50 1012 keine Meldung
Mi, 21.10. 0:40 1013 keine Meldung
Mi, 21.10. 0:30 1013 - 0,8
Mi, 21.10. 0:00 1013 - 0,5
Ortszeit Schneehöhe (cm)
Di, 20.10. 20:00 0
Di, 20.10. 14:00 0
Di, 20.10. 8:00 0
Di, 20.10. 2:00 0
Mo, 19.10. 20:00 0
Mo, 19.10. 14:00 0
Mo, 19.10. 8:00 0
Mo, 19.10. 2:00 0
Ortszeit Schneehöhe (cm)
Mi, 21.10. 1:30 0
Mi, 21.10. 1:20 0
Mi, 21.10. 1:10 0
Mi, 21.10. 1:00 0
Mi, 21.10. 0:50 0
Mi, 21.10. 0:40 0
Mi, 21.10. 0:30 0
Mi, 21.10. 0:00 0
Link zu dieser Seite / Seite empfehlen

Das Wetter in ...